createdAt,value
2022-12-08T00:01:36.216Z,3.17
2022-12-08T00:06:59.510Z,4.33
2022-12-08T00:12:09.585Z,3.10
2022-12-08T00:17:12.403Z,4.60
2022-12-08T00:22:15.120Z,3.70
2022-12-08T00:27:18.012Z,3.97
2022-12-08T00:32:19.533Z,3.60
2022-12-08T00:37:21.063Z,3.23
2022-12-08T00:42:22.525Z,4.40
2022-12-08T00:47:25.121Z,4.43
2022-12-08T00:52:26.683Z,3.10
2022-12-08T00:57:28.136Z,3.73
2022-12-08T01:02:29.782Z,4.13
2022-12-08T01:07:31.541Z,2.93
2022-12-08T01:12:32.946Z,3.47
2022-12-08T01:17:34.426Z,4.23
2022-12-08T01:22:36.155Z,3.77
2022-12-08T01:27:37.653Z,4.03
2022-12-08T01:32:39.078Z,3.47
2022-12-08T01:37:40.571Z,3.93
2022-12-08T01:42:42.242Z,4.60
2022-12-08T01:47:46.707Z,4.30
2022-12-08T01:52:51.122Z,4.80
2022-12-08T01:58:00.776Z,4.37
2022-12-08T02:03:04.327Z,5.00
2022-12-08T02:08:11.525Z,4.83
2022-12-08T02:13:15.505Z,5.80
2022-12-08T02:18:33.081Z,4.77
2022-12-08T02:23:54.263Z,3.90
2022-12-08T02:29:11.262Z,3.47
2022-12-08T02:34:21.018Z,3.20
2022-12-08T02:39:39.308Z,3.30
2022-12-08T02:44:50.817Z,2.20
2022-12-08T02:49:52.362Z,2.70
2022-12-08T02:54:57.392Z,3.13
2022-12-08T03:00:05.813Z,3.13
2022-12-08T03:05:42.989Z,3.17
2022-12-08T03:10:56.186Z,2.80
2022-12-08T03:15:57.961Z,2.87
2022-12-08T03:20:59.599Z,3.00
2022-12-08T03:26:08.929Z,3.00
2022-12-08T03:31:12.572Z,2.93
2022-12-08T03:36:14.351Z,2.40
2022-12-08T03:41:18.658Z,1.90
2022-12-08T03:51:23.291Z,1.97
2022-12-08T03:56:36.897Z,2.20
2022-12-08T04:01:38.445Z,2.90
2022-12-08T04:06:39.930Z,2.83
2022-12-08T04:11:41.987Z,2.80
2022-12-08T04:16:43.447Z,3.27
2022-12-08T04:21:44.884Z,2.73
2022-12-08T04:26:46.382Z,3.60
2022-12-08T04:31:47.869Z,3.07
2022-12-08T04:36:49.354Z,3.50
2022-12-08T04:41:50.772Z,3.00
2022-12-08T04:46:52.334Z,4.37
2022-12-08T04:51:53.788Z,4.20
2022-12-08T04:56:55.217Z,3.70
2022-12-08T05:01:56.859Z,4.13
2022-12-08T05:06:58.632Z,4.30
2022-12-08T05:12:00.129Z,5.00
2022-12-08T05:17:06.215Z,4.07
2022-12-08T05:22:11.188Z,4.77
2022-12-08T05:27:12.630Z,4.60
2022-12-08T05:32:14.175Z,4.80
2022-12-08T05:37:15.685Z,5.00
2022-12-08T05:42:21.722Z,6.43
2022-12-08T05:47:26.445Z,5.30
2022-12-08T05:52:29.592Z,6.30
2022-12-08T05:57:31.105Z,6.40
2022-12-08T06:02:32.697Z,6.90
2022-12-08T06:07:34.335Z,5.63
2022-12-08T06:12:35.808Z,4.90
2022-12-08T06:17:37.359Z,6.73
2022-12-08T06:22:38.855Z,7.33
2022-12-08T06:27:40.278Z,6.63
2022-12-08T06:32:41.876Z,7.47
2022-12-08T06:37:43.364Z,5.53
2022-12-08T06:42:44.972Z,5.70
2022-12-08T06:47:46.405Z,6.50
2022-12-08T06:52:59.598Z,5.87
2022-12-08T06:58:06.119Z,7.03
2022-12-08T07:03:08.818Z,6.17
2022-12-08T07:08:10.348Z,7.20
2022-12-08T07:13:11.886Z,6.47
2022-12-08T07:18:13.351Z,6.27
2022-12-08T07:23:14.980Z,5.33
2022-12-08T07:28:16.416Z,3.20
2022-12-08T07:33:17.846Z,4.70
2022-12-08T07:38:20.127Z,7.10
2022-12-08T07:43:22.230Z,6.47
2022-12-08T07:48:23.759Z,7.13
2022-12-08T07:53:25.223Z,6.10
2022-12-08T07:58:27.868Z,6.37
2022-12-08T08:03:29.442Z,6.00
2022-12-08T08:08:31.419Z,6.30
2022-12-08T08:13:33.163Z,6.70
2022-12-08T08:18:35.331Z,6.07
2022-12-08T08:23:36.816Z,6.83
2022-12-08T08:28:38.338Z,6.10
2022-12-08T08:33:39.887Z,6.60
2022-12-08T08:38:44.137Z,5.87
2022-12-08T08:43:45.542Z,7.57
2022-12-08T08:48:46.980Z,6.00
2022-12-08T08:53:48.556Z,7.80
2022-12-08T08:58:51.090Z,7.17
2022-12-08T09:03:52.700Z,4.60
2022-12-08T09:08:54.308Z,6.60
2022-12-08T09:13:55.861Z,5.80
2022-12-08T09:18:57.283Z,6.20
2022-12-08T09:23:59.134Z,6.80
2022-12-08T09:29:00.693Z,7.17
2022-12-08T09:34:02.526Z,6.63
2022-12-08T09:39:04.079Z,7.00
2022-12-08T09:44:27.169Z,5.83
2022-12-08T09:49:39.385Z,6.27
2022-12-08T09:54:40.965Z,5.60
2022-12-08T09:59:45.455Z,7.23
2022-12-08T10:04:46.915Z,6.50
2022-12-08T10:10:04.029Z,6.77
2022-12-08T10:15:33.326Z,6.67
2022-12-08T10:20:40.789Z,1.60
2022-12-08T10:25:48.176Z,6.70
2022-12-08T10:30:49.689Z,6.17
2022-12-08T10:35:58.340Z,4.70
2022-12-08T10:41:09.050Z,4.27
2022-12-08T10:46:16.847Z,4.40
2022-12-08T10:51:27.085Z,4.80
2022-12-08T10:56:30.419Z,3.67
2022-12-08T11:01:38.292Z,4.87
2022-12-08T11:06:40.692Z,2.27
2022-12-08T11:11:55.764Z,3.20
2022-12-08T11:17:05.287Z,1.83
2022-12-08T11:22:31.122Z,3.03
2022-12-08T11:27:33.797Z,3.73
2022-12-08T11:32:35.880Z,5.77
2022-12-08T11:37:41.985Z,5.00
2022-12-08T11:42:59.446Z,6.00
2022-12-08T11:48:19.559Z,4.90
2022-12-08T11:53:46.839Z,5.80
2022-12-08T11:58:53.237Z,6.33
2022-12-08T12:04:06.322Z,6.13
2022-12-08T12:09:19.319Z,4.87
2022-12-08T12:14:58.317Z,4.97
2022-12-08T12:20:04.128Z,5.37
2022-12-08T12:25:06.204Z,4.30
2022-12-08T12:30:26.216Z,4.33
2022-12-08T12:35:57.634Z,5.67
2022-12-08T12:41:03.258Z,5.10
2022-12-08T12:46:23.186Z,5.33
2022-12-08T12:51:44.860Z,4.80
2022-12-08T12:56:53.806Z,3.60
2022-12-08T13:01:55.749Z,3.33
2022-12-08T13:06:57.580Z,3.27
2022-12-08T13:12:01.605Z,4.10
2022-12-08T13:17:07.575Z,3.07
2022-12-08T13:22:53.670Z,4.30
2022-12-08T13:27:55.243Z,4.20
2022-12-08T13:38:22.655Z,4.67
2022-12-08T13:44:10.237Z,4.30
2022-12-08T13:50:49.610Z,3.40
2022-12-08T14:00:21.823Z,4.57
2022-12-08T14:05:47.590Z,5.37
2022-12-08T14:10:53.757Z,4.93
2022-12-08T14:15:55.258Z,2.47
2022-12-08T14:21:20.319Z,4.80
2022-12-08T14:26:22.527Z,4.43
2022-12-08T14:31:24.026Z,4.27
2022-12-08T14:36:26.021Z,4.40
2022-12-08T14:41:32.197Z,4.13
2022-12-08T14:46:35.031Z,4.20
2022-12-08T14:51:36.872Z,4.07
2022-12-08T14:56:43.126Z,4.10
2022-12-08T15:01:45.534Z,4.13
2022-12-08T15:06:50.052Z,5.07
2022-12-08T15:12:26.184Z,4.60
2022-12-08T15:17:40.961Z,5.23
2022-12-08T15:22:42.436Z,3.40
2022-12-08T15:27:50.583Z,3.50
2022-12-08T15:32:54.150Z,3.90
2022-12-08T15:37:55.614Z,5.07
2022-12-08T15:42:57.148Z,4.43
2022-12-08T15:47:59.202Z,5.63
2022-12-08T15:53:01.215Z,4.47
2022-12-08T15:58:52.391Z,4.67
2022-12-08T16:04:13.804Z,5.83
2022-12-08T16:08:56.162Z,4.20
2022-12-08T16:14:36.794Z,5.60
2022-12-08T16:19:28.890Z,6.70
2022-12-08T16:24:30.331Z,7.10
2022-12-08T16:29:31.768Z,5.33
2022-12-08T16:34:33.194Z,5.60
2022-12-08T16:39:34.708Z,6.07
2022-12-08T16:44:41.000Z,4.90
2022-12-08T16:49:42.515Z,4.20
2022-12-08T16:54:43.943Z,5.60
2022-12-08T16:59:45.590Z,6.10
2022-12-08T17:04:47.143Z,5.83
2022-12-08T17:09:48.679Z,5.57
2022-12-08T17:14:50.197Z,7.83
2022-12-08T17:19:51.625Z,6.70
2022-12-08T17:24:53.303Z,7.70
2022-12-08T17:29:54.776Z,7.63
2022-12-08T17:34:56.225Z,5.97
2022-12-08T17:39:57.646Z,6.07
2022-12-08T17:44:59.082Z,4.90
2022-12-08T17:50:00.867Z,5.50
2022-12-08T17:55:02.984Z,6.60
2022-12-08T18:00:05.983Z,7.90
2022-12-08T18:05:07.910Z,7.67
2022-12-08T18:10:09.517Z,5.43
2022-12-08T18:15:13.734Z,7.47
2022-12-08T18:20:15.223Z,6.40
2022-12-08T18:25:16.798Z,7.43
2022-12-08T18:30:18.568Z,6.90
2022-12-08T18:35:20.015Z,7.90
2022-12-08T18:40:21.641Z,6.60
2022-12-08T18:45:23.276Z,5.90
2022-12-08T18:50:24.797Z,6.37
2022-12-08T18:55:26.301Z,6.47
2022-12-08T19:00:27.865Z,6.47
2022-12-08T19:05:29.330Z,7.00
2022-12-08T19:10:32.149Z,7.93
2022-12-08T19:15:34.642Z,8.40
2022-12-08T19:20:36.151Z,7.83
2022-12-08T19:25:37.622Z,7.60
2022-12-08T19:30:39.230Z,7.30
2022-12-08T19:35:40.761Z,6.67
2022-12-08T19:41:02.259Z,6.63
2022-12-08T19:46:03.935Z,7.07
2022-12-08T19:51:05.763Z,9.50
2022-12-08T19:56:10.586Z,5.47
2022-12-08T20:01:14.772Z,7.87
2022-12-08T20:06:18.246Z,7.27
2022-12-08T20:11:20.469Z,5.23
2022-12-08T20:16:23.938Z,5.87
2022-12-08T20:21:25.683Z,7.30
2022-12-08T20:26:27.454Z,7.00
2022-12-08T20:31:30.198Z,7.10
2022-12-08T20:36:31.713Z,6.80
2022-12-08T20:41:55.809Z,9.63
2022-12-08T20:46:56.171Z,9.23
2022-12-08T20:51:57.780Z,10.98
2022-12-08T20:56:59.849Z,7.73
2022-12-08T21:02:01.860Z,7.33
2022-12-08T21:07:03.726Z,7.00
2022-12-08T21:12:05.813Z,7.17
2022-12-08T21:17:08.283Z,7.17
2022-12-08T21:22:10.144Z,8.20
2022-12-08T21:27:25.749Z,6.57
2022-12-08T21:32:30.644Z,12.40
2022-12-08T21:37:33.180Z,6.87
2022-12-08T21:42:43.934Z,8.40
2022-12-08T21:47:46.815Z,6.73
2022-12-08T21:52:49.380Z,7.57
2022-12-08T21:57:50.913Z,8.13
2022-12-08T22:02:55.557Z,7.97
2022-12-08T22:07:58.471Z,7.83
2022-12-08T22:13:00.217Z,7.80
2022-12-08T22:18:02.053Z,7.50
2022-12-08T22:23:03.624Z,6.80
2022-12-08T22:28:06.503Z,7.00
2022-12-08T22:33:08.303Z,6.93
2022-12-08T22:38:10.038Z,5.67
2022-12-08T22:43:11.663Z,7.50
2022-12-08T22:48:13.302Z,6.83
2022-12-08T22:53:14.846Z,6.17
2022-12-08T22:58:16.402Z,6.20
2022-12-08T23:03:18.325Z,6.77
2022-12-08T23:08:20.028Z,8.27
2022-12-08T23:13:22.075Z,6.20
2022-12-08T23:18:23.623Z,7.23
2022-12-08T23:23:25.085Z,7.37
2022-12-08T23:28:26.872Z,7.90
2022-12-08T23:33:28.630Z,6.10
2022-12-08T23:38:30.329Z,7.83
2022-12-08T23:43:32.133Z,7.07
2022-12-08T23:48:34.546Z,7.57
2022-12-08T23:53:36.492Z,7.70
2022-12-08T23:58:38.212Z,7.60
